PWSweather.com
Personal Weather Stations
Station Observations
SHAHALMS1
Eftra, Falkenberg, HA

EftraFalkenberg, HA

Lat: 56.85, Lon: 12.65

Elevation: 140

Station Type:

http://hem.passagen.se/risarp101

High Low Average
Temperature 64.9°F18.3°C 57.0°F13.9°C 61.0°F16.1°C
Dew Point 60.9°F16.1°C 52.6°F11.4°C 57.8°F14.3°C
Winds 6.1 mph 9.8 kmh Calm Calm 2.0 mph E3.2 kmh E
Wind Gusts 12.5 mph20.1 kmh -- 5.0 mph8.0 kmh
Humidity 93% 83% 89%
Pressure 29.95 in1014.2 mb 29.83 in1010.2 mb -
Precipitation 0.62 in15.7 mm - -
Hour Temp Dew Point Humidity Winds Wind Gusts Pressure Precip Precip Rate Daily Precip Total
12:00 AM 57.7°F14.3°C 52.6°F11.4°C 83% 0.1 mph E0.2 kmh E 1.8 mph2.9 kmh 29.92 in1013.2 mb 0.00 in0.0 mm 0.00 in0.0 mm 0.00 in0.0 mm
12:15 AM 57.4°F14.1°C 52.6°F11.4°C 84% Calm Calm -- 29.92 in1013.2 mb 0.00 in0.0 mm 0.00 in0.0 mm 0.00 in0.0 mm
12:30 AM 57.2°F14.0°C 52.7°F11.5°C 85% 0.4 mph E0.6 kmh E 4.7 mph7.6 kmh 29.92 in1013.2 mb 0.00 in0.0 mm 0.00 in0.0 mm 0.00 in0.0 mm
12:45 AM 57.2°F14.0°C 53.0°F11.7°C 86% 0.2 mph E0.3 kmh E 5.0 mph8.0 kmh 29.92 in1013.2 mb 0.00 in0.0 mm 0.00 in0.0 mm 0.00 in0.0 mm
01:00 AM 57.4°F14.1°C 53.5°F11.9°C 87% 0.8 mph E1.3 kmh E 5.0 mph8.0 kmh 29.92 in1013.2 mb 0.00 in0.0 mm 0.00 in0.0 mm 0.00 in0.0 mm
01:15 AM 57.4°F14.1°C 53.5°F11.9°C 87% 0.2 mph E0.3 kmh E 3.9 mph6.3 kmh 29.92 in1013.2 mb 0.00 in0.0 mm 0.00 in0.0 mm 0.00 in0.0 mm
01:30 AM 57.2°F14.0°C 53.4°F11.9°C 87% Calm Calm -- 29.92 in1013.2 mb 0.00 in0.0 mm 0.00 in0.0 mm 0.00 in0.0 mm
01:45 AM 57.0°F13.9°C 53.2°F11.8°C 87% Calm Calm -- 29.92 in1013.2 mb 0.00 in0.0 mm 0.00 in0.0 mm 0.00 in0.0 mm
02:00 AM 57.4°F14.1°C 53.9°F12.2°C 88% Calm Calm 2.5 mph4.0 kmh 29.92 in1013.2 mb 0.00 in0.0 mm 0.00 in0.0 mm 0.00 in0.0 mm
02:15 AM 57.6°F14.2°C 54.3°F12.4°C 89% 0.5 mph E0.8 kmh E 4.3 mph6.9 kmh 29.92 in1013.2 mb 0.00 in0.0 mm 0.00 in0.0 mm 0.00 in0.0 mm
02:30 AM 57.6°F14.2°C 54.3°F12.4°C 89% 1.1 mph E1.8 kmh E 5.4 mph8.7 kmh 29.89 in1012.2 mb 0.00 in0.0 mm 0.00 in0.0 mm 0.00 in0.0 mm
02:45 AM 57.6°F14.2°C 54.3°F12.4°C 89% 0.1 mph E0.2 kmh E 4.7 mph7.6 kmh 29.89 in1012.2 mb 0.00 in0.0 mm 0.00 in0.0 mm 0.00 in0.0 mm
03:00 AM 57.7°F14.3°C 54.5°F12.5°C 89% 3.1 mph E5.0 kmh E 6.1 mph9.8 kmh 29.86 in1011.2 mb 0.00 in0.0 mm 0.00 in0.0 mm 0.00 in0.0 mm
03:15 AM 57.9°F14.4°C 54.7°F12.6°C 89% 4.2 mph E6.8 kmh E 9.7 mph15.6 kmh 29.86 in1011.2 mb 0.00 in0.0 mm 0.00 in0.0 mm 0.00 in0.0 mm
03:30 AM 58.1°F14.5°C 55.2°F12.9°C 90% 4.5 mph E7.2 kmh E 10.0 mph16.1 kmh 29.86 in1011.2 mb 0.00 in0.0 mm 0.00 in0.0 mm 0.00 in0.0 mm
03:45 AM 58.3°F14.6°C 55.4°F13.0°C 90% 5.7 mph E9.2 kmh E 12.2 mph19.6 kmh 29.86 in1011.2 mb 0.00 in0.0 mm 0.00 in0.0 mm 0.00 in0.0 mm
04:00 AM 58.3°F14.6°C 55.4°F13.0°C 90% 6.1 mph E9.8 kmh E 12.5 mph20.1 kmh 29.86 in1011.2 mb 0.00 in0.0 mm 0.00 in0.0 mm 0.00 in0.0 mm
04:15 AM 58.1°F14.5°C 55.2°F12.9°C 90% 5.8 mph E9.3 kmh E 11.8 mph19.0 kmh 29.86 in1011.2 mb 0.00 in0.0 mm 0.00 in0.0 mm 0.00 in0.0 mm
04:30 AM 58.1°F14.5°C 55.2°F12.9°C 90% 5.3 mph E8.5 kmh E 9.7 mph15.6 kmh 29.86 in1011.2 mb 0.00 in0.0 mm 0.00 in0.0 mm 0.00 in0.0 mm
04:45 AM 58.3°F14.6°C 55.4°F13.0°C 90% 5.1 mph E8.2 kmh E 10.0 mph16.1 kmh 29.86 in1011.2 mb 0.00 in0.0 mm 0.00 in0.0 mm 0.00 in0.0 mm
05:00 AM 58.3°F14.6°C 55.4°F13.0°C 90% 5.3 mph E8.5 kmh E 8.6 mph13.8 kmh 29.86 in1011.2 mb 0.00 in0.0 mm 0.00 in0.0 mm 0.00 in0.0 mm
05:15 AM 58.3°F14.6°C 55.4°F13.0°C 90% 4.7 mph E7.6 kmh E 10.0 mph16.1 kmh 29.86 in1011.2 mb 0.00 in0.0 mm 0.00 in0.0 mm 0.00 in0.0 mm
05:30 AM 58.5°F14.7°C 55.5°F13.1°C 90% 4.8 mph E7.7 kmh E 10.0 mph16.1 kmh 29.83 in1010.2 mb 0.00 in0.0 mm 0.00 in0.0 mm 0.00 in0.0 mm
05:45 AM 58.6°F14.8°C 56.0°F13.3°C 91% 5.2 mph E8.4 kmh E 10.4 mph16.7 kmh 29.86 in1011.2 mb 0.00 in0.0 mm 0.00 in0.0 mm 0.00 in0.0 mm
06:00 AM 58.8°F14.9°C 56.2°F13.4°C 91% 4.2 mph E6.8 kmh E 9.3 mph15.0 kmh 29.83 in1010.2 mb 0.00 in0.0 mm 0.00 in0.0 mm 0.00 in0.0 mm
06:15 AM 59.2°F15.1°C 56.6°F13.7°C 91% 5.1 mph E8.2 kmh E 8.9 mph14.3 kmh 29.86 in1011.2 mb 0.00 in0.0 mm 0.00 in0.0 mm 0.00 in0.0 mm
06:30 AM 59.7°F15.4°C 57.1°F13.9°C 91% 5.0 mph E8.0 kmh E 9.3 mph15.0 kmh 29.86 in1011.2 mb 0.00 in0.0 mm 0.00 in0.0 mm 0.00 in0.0 mm
06:45 AM 60.1°F15.6°C 57.4°F14.1°C 91% 4.5 mph E7.2 kmh E 11.8 mph19.0 kmh 29.86 in1011.2 mb 0.00 in0.0 mm 0.00 in0.0 mm 0.00 in0.0 mm
07:00 AM 60.6°F15.9°C 58.0°F14.4°C 91% 4.6 mph E7.4 kmh E 12.2 mph19.6 kmh 29.86 in1011.2 mb 0.00 in0.0 mm 0.00 in0.0 mm 0.00 in0.0 mm
07:15 AM 61.0°F16.1°C 58.3°F14.6°C 91% 5.4 mph E8.7 kmh E 11.5 mph18.5 kmh 29.86 in1011.2 mb 0.00 in0.0 mm 0.00 in0.0 mm 0.00 in0.0 mm
07:30 AM 61.0°F16.1°C 58.0°F14.4°C 90% 4.5 mph E7.2 kmh E 10.7 mph17.2 kmh 29.83 in1010.2 mb 0.00 in0.0 mm 0.00 in0.0 mm 0.00 in0.0 mm
07:45 AM 61.2°F16.2°C 58.2°F14.6°C 90% 4.8 mph E7.7 kmh E 9.7 mph15.6 kmh 29.86 in1011.2 mb 0.00 in0.0 mm 0.00 in0.0 mm 0.00 in0.0 mm
08:00 AM 61.7°F16.5°C 59.0°F15.0°C 91% 4.6 mph E7.4 kmh E 10.0 mph16.1 kmh 29.83 in1010.2 mb 0.00 in0.0 mm 0.00 in0.0 mm 0.00 in0.0 mm
08:15 AM 62.2°F16.8°C 59.3°F15.2°C 90% 4.1 mph E6.6 kmh E 10.4 mph16.7 kmh 29.86 in1011.2 mb 0.00 in0.0 mm 0.00 in0.0 mm 0.00 in0.0 mm
08:30 AM 63.0°F17.2°C 60.0°F15.6°C 90% 5.8 mph E9.3 kmh E 10.0 mph16.1 kmh 29.83 in1010.2 mb 0.00 in0.0 mm 0.00 in0.0 mm 0.00 in0.0 mm
08:45 AM 63.9°F17.7°C 60.9°F16.1°C 90% 5.2 mph E8.4 kmh E 10.0 mph16.1 kmh 29.86 in1011.2 mb 0.00 in0.0 mm 0.00 in0.0 mm 0.00 in0.0 mm
09:00 AM 64.4°F18.0°C 60.8°F16.0°C 88% 4.7 mph E7.6 kmh E 10.4 mph16.7 kmh 29.86 in1011.2 mb 0.00 in0.0 mm 0.00 in0.0 mm 0.00 in0.0 mm
09:15 AM 64.6°F18.1°C 60.6°F15.9°C 87% 1.3 mph E2.1 kmh E 6.8 mph10.9 kmh 29.86 in1011.2 mb 0.00 in0.0 mm 0.00 in0.0 mm 0.00 in0.0 mm
09:30 AM 64.8°F18.2°C 60.5°F15.8°C 86% 0.4 mph ENE0.6 kmh ENE 3.9 mph6.3 kmh 29.86 in1011.2 mb 0.00 in0.0 mm 0.00 in0.0 mm 0.00 in0.0 mm
09:45 AM 64.4°F18.0°C 59.5°F15.3°C 84% 0.1 mph NE0.2 kmh NE 1.8 mph2.9 kmh 29.86 in1011.2 mb 0.00 in0.0 mm 0.00 in0.0 mm 0.00 in0.0 mm
10:00 AM 64.2°F17.9°C 59.3°F15.2°C 84% Calm Calm -- 29.86 in1011.2 mb 0.00 in0.0 mm 0.00 in0.0 mm 0.00 in0.0 mm
10:15 AM 64.2°F17.9°C 59.6°F15.3°C 85% 0.1 mph NE0.2 kmh NE 2.5 mph4.0 kmh 29.86 in1011.2 mb 0.00 in0.0 mm 0.00 in0.0 mm 0.00 in0.0 mm
10:30 AM 64.4°F18.0°C 59.5°F15.3°C 84% 0.5 mph E0.8 kmh E 5.4 mph8.7 kmh 29.86 in1011.2 mb 0.00 in0.0 mm 0.00 in0.0 mm 0.00 in0.0 mm
10:45 AM 64.8°F18.2°C 59.8°F15.4°C 84% 2.1 mph E3.4 kmh E 6.8 mph10.9 kmh 29.86 in1011.2 mb 0.00 in0.0 mm 0.00 in0.0 mm 0.00 in0.0 mm
11:00 AM 64.9°F18.3°C 60.0°F15.6°C 84% 0.5 mph E0.8 kmh E 6.1 mph9.8 kmh 29.86 in1011.2 mb 0.00 in0.0 mm 0.00 in0.0 mm 0.00 in0.0 mm
11:15 AM 64.9°F18.3°C 60.0°F15.6°C 84% 0.1 mph E0.2 kmh E 5.0 mph8.0 kmh 29.86 in1011.2 mb 0.00 in0.0 mm 0.00 in0.0 mm 0.00 in0.0 mm
11:30 AM 64.6°F18.1°C 59.6°F15.3°C 84% Calm Calm -- 29.89 in1012.2 mb 0.00 in0.0 mm 0.00 in0.0 mm 0.00 in0.0 mm
11:45 AM 64.4°F18.0°C 59.5°F15.3°C 84% Calm Calm -- 29.86 in1011.2 mb 0.00 in0.0 mm 0.00 in0.0 mm 0.00 in0.0 mm
12:01 PM 64.4°F18.0°C 59.8°F15.4°C 85% Calm Calm -- 29.86 in1011.2 mb 0.00 in0.0 mm 0.00 in0.0 mm 0.00 in0.0 mm
12:15 PM 64.2°F17.9°C 59.9°F15.5°C 86% Calm Calm -- 29.89 in1012.2 mb 0.00 in0.0 mm 0.00 in0.0 mm 0.00 in0.0 mm
12:30 PM 64.2°F17.9°C 59.9°F15.5°C 86% Calm Calm -- 29.89 in1012.2 mb 0.05 in1.3 mm 0.20 in5.1 mm 0.05 in1.3 mm
12:45 PM 64.0°F17.8°C 60.1°F15.6°C 87% Calm Calm -- 29.89 in1012.2 mb 0.05 in1.3 mm 0.00 in0.0 mm 0.05 in1.3 mm
01:00 PM 63.9°F17.7°C 59.9°F15.5°C 87% Calm Calm -- 29.89 in1012.2 mb 0.05 in1.3 mm 0.00 in0.0 mm 0.05 in1.3 mm
01:15 PM 64.0°F17.8°C 60.4°F15.8°C 88% Calm Calm -- 29.89 in1012.2 mb 0.05 in1.3 mm 0.00 in0.0 mm 0.05 in1.3 mm
01:30 PM 63.7°F17.6°C 60.1°F15.6°C 88% 0.4 mph N0.6 kmh N 3.6 mph5.8 kmh 29.89 in1012.2 mb 0.00 in0.0 mm 0.00 in0.0 mm 0.05 in1.3 mm
01:45 PM 63.9°F17.7°C 60.2°F15.7°C 88% Calm Calm -- 29.89 in1012.2 mb 0.00 in0.0 mm 0.00 in0.0 mm 0.05 in1.3 mm
02:00 PM 64.0°F17.8°C 60.7°F15.9°C 89% 0.6 mph E1.0 kmh E 5.7 mph9.2 kmh 29.89 in1012.2 mb 0.05 in1.3 mm 0.07 in1.8 mm 0.09 in2.3 mm
02:15 PM 64.0°F17.8°C 60.7°F15.9°C 89% 0.1 mph E0.2 kmh E 1.8 mph2.9 kmh 29.92 in1013.2 mb 0.05 in1.3 mm 0.00 in0.0 mm 0.09 in2.3 mm
02:30 PM 64.0°F17.8°C 60.7°F15.9°C 89% 0.2 mph E0.3 kmh E 3.9 mph6.3 kmh 29.92 in1013.2 mb 0.05 in1.3 mm 0.00 in0.0 mm 0.09 in2.3 mm
02:45 PM 63.9°F17.7°C 60.6°F15.9°C 89% 0.2 mph E0.3 kmh E 3.6 mph5.8 kmh 29.92 in1013.2 mb 0.09 in2.3 mm 0.16 in4.1 mm 0.14 in3.6 mm
03:00 PM 63.9°F17.7°C 60.6°F15.9°C 89% 0.1 mph N0.2 kmh N 1.8 mph2.9 kmh 29.92 in1013.2 mb 0.05 in1.3 mm 0.00 in0.0 mm 0.14 in3.6 mm
03:15 PM 63.7°F17.6°C 60.4°F15.8°C 89% 0.4 mph N0.6 kmh N 5.0 mph8.0 kmh 29.92 in1013.2 mb 0.05 in1.3 mm 0.00 in0.0 mm 0.14 in3.6 mm
03:30 PM 63.7°F17.6°C 60.1°F15.6°C 88% Calm Calm -- 29.92 in1013.2 mb 0.05 in1.3 mm 0.00 in0.0 mm 0.14 in3.6 mm
03:45 PM 63.7°F17.6°C 60.4°F15.8°C 89% Calm Calm -- 29.92 in1013.2 mb 0.00 in0.0 mm 0.00 in0.0 mm 0.14 in3.6 mm
04:00 PM 63.5°F17.5°C 60.2°F15.7°C 89% Calm Calm -- 29.92 in1013.2 mb 0.00 in0.0 mm 0.00 in0.0 mm 0.14 in3.6 mm
04:15 PM 63.1°F17.3°C 59.5°F15.3°C 88% Calm Calm -- 29.95 in1014.2 mb 0.00 in0.0 mm 0.00 in0.0 mm 0.14 in3.6 mm
04:30 PM 63.0°F17.2°C 59.7°F15.4°C 89% Calm Calm -- 29.92 in1013.2 mb 0.00 in0.0 mm 0.00 in0.0 mm 0.14 in3.6 mm
04:45 PM 62.8°F17.1°C 59.5°F15.3°C 89% Calm Calm -- 29.92 in1013.2 mb 0.00 in0.0 mm 0.00 in0.0 mm 0.14 in3.6 mm
05:00 PM 62.6°F17.0°C 59.3°F15.2°C 89% Calm Calm -- 29.92 in1013.2 mb 0.00 in0.0 mm 0.00 in0.0 mm 0.14 in3.6 mm
05:15 PM 62.2°F16.8°C 59.3°F15.2°C 90% Calm Calm -- 29.92 in1013.2 mb 0.06 in1.5 mm 0.24 in6.1 mm 0.20 in5.1 mm
05:30 PM 62.2°F16.8°C 59.3°F15.2°C 90% Calm Calm -- 29.92 in1013.2 mb 0.10 in2.5 mm 0.16 in4.1 mm 0.24 in6.1 mm
05:45 PM 62.1°F16.7°C 59.4°F15.2°C 91% Calm Calm -- 29.92 in1013.2 mb 0.19 in4.8 mm 0.36 in9.1 mm 0.33 in8.4 mm
06:00 PM 61.9°F16.6°C 59.2°F15.1°C 91% 0.1 mph N0.2 kmh N 2.1 mph3.4 kmh 29.89 in1012.2 mb 0.19 in4.8 mm 0.00 in0.0 mm 0.33 in8.4 mm
06:15 PM 61.3°F16.3°C 58.4°F14.7°C 90% 0.8 mph N1.3 kmh N 6.8 mph10.9 kmh 29.89 in1012.2 mb 0.14 in3.6 mm 0.00 in0.0 mm 0.33 in8.4 mm
06:30 PM 61.0°F16.1°C 58.0°F14.4°C 90% 0.1 mph W0.2 kmh W 1.8 mph2.9 kmh 29.92 in1013.2 mb 0.14 in3.6 mm 0.00 in0.0 mm 0.38 in9.7 mm
06:45 PM 60.6°F15.9°C 57.7°F14.3°C 90% 0.6 mph W1.0 kmh W 3.9 mph6.3 kmh 29.92 in1013.2 mb 0.05 in1.3 mm 0.00 in0.0 mm 0.38 in9.7 mm
07:00 PM 60.6°F15.9°C 58.0°F14.4°C 91% 0.3 mph N0.5 kmh N 3.9 mph6.3 kmh 29.92 in1013.2 mb 0.09 in2.3 mm 0.05 in1.3 mm 0.43 in10.9 mm
07:15 PM 60.4°F15.8°C 57.8°F14.3°C 91% 3.0 mph N4.8 kmh N 6.8 mph10.9 kmh 29.92 in1013.2 mb 0.15 in3.8 mm 0.24 in6.1 mm 0.48 in12.2 mm
07:30 PM 60.4°F15.8°C 57.8°F14.3°C 91% 0.3 mph N0.5 kmh N 3.6 mph5.8 kmh 29.92 in1013.2 mb 0.10 in2.5 mm 0.00 in0.0 mm 0.48 in12.2 mm
07:45 PM 60.3°F15.7°C 57.6°F14.2°C 91% Calm Calm -- 29.92 in1013.2 mb 0.10 in2.5 mm 0.00 in0.0 mm 0.48 in12.2 mm
08:00 PM 60.3°F15.7°C 57.6°F14.2°C 91% Calm Calm -- 29.95 in1014.2 mb 0.09 in2.3 mm 0.00 in0.0 mm 0.52 in13.2 mm
08:15 PM 60.1°F15.6°C 57.4°F14.1°C 91% Calm Calm -- 29.92 in1013.2 mb 0.04 in1.0 mm 0.00 in0.0 mm 0.52 in13.2 mm
08:30 PM 60.1°F15.6°C 57.7°F14.3°C 92% 0.1 mph NNW0.2 kmh NNW 2.5 mph4.0 kmh 29.92 in1013.2 mb 0.04 in1.0 mm 0.00 in0.0 mm 0.52 in13.2 mm
08:45 PM 60.1°F15.6°C 57.7°F14.3°C 92% Calm Calm -- 29.92 in1013.2 mb 0.04 in1.0 mm 0.00 in0.0 mm 0.52 in13.2 mm
09:00 PM 60.1°F15.6°C 57.7°F14.3°C 92% Calm Calm -- 29.92 in1013.2 mb 0.06 in1.5 mm 0.03 in0.8 mm 0.58 in14.7 mm
09:15 PM 59.9°F15.5°C 57.6°F14.2°C 92% Calm Calm -- 29.92 in1013.2 mb 0.06 in1.5 mm 0.00 in0.0 mm 0.58 in14.7 mm
09:30 PM 59.9°F15.5°C 57.6°F14.2°C 92% Calm Calm -- 29.92 in1013.2 mb 0.06 in1.5 mm 0.00 in0.0 mm 0.58 in14.7 mm
09:45 PM 59.9°F15.5°C 57.6°F14.2°C 92% Calm Calm -- 29.92 in1013.2 mb 0.10 in2.5 mm 0.16 in4.1 mm 0.62 in15.7 mm
10:00 PM 59.7°F15.4°C 57.4°F14.1°C 92% Calm Calm -- 29.92 in1013.2 mb 0.05 in1.3 mm 0.00 in0.0 mm 0.62 in15.7 mm
10:15 PM 59.7°F15.4°C 57.4°F14.1°C 92% 0.1 mph N0.2 kmh N 2.5 mph4.0 kmh 29.92 in1013.2 mb 0.05 in1.3 mm 0.00 in0.0 mm 0.62 in15.7 mm
10:30 PM 59.5°F15.3°C 57.5°F14.2°C 93% 3.8 mph N6.1 kmh N 8.6 mph13.8 kmh 29.92 in1013.2 mb 0.05 in1.3 mm 0.00 in0.0 mm 0.62 in15.7 mm
10:45 PM 59.4°F15.2°C 57.3°F14.1°C 93% 2.1 mph N3.4 kmh N 6.4 mph10.3 kmh 29.92 in1013.2 mb 0.00 in0.0 mm 0.00 in0.0 mm 0.62 in15.7 mm
11:00 PM 59.4°F15.2°C 57.3°F14.1°C 93% 3.7 mph N6.0 kmh N 7.5 mph12.1 kmh 29.92 in1013.2 mb 0.00 in0.0 mm 0.00 in0.0 mm 0.49 in12.4 mm
11:15 PM 59.2°F15.1°C 57.2°F14.0°C 93% 2.8 mph N4.5 kmh N 7.9 mph12.7 kmh 29.92 in1013.2 mb 0.00 in0.0 mm 0.00 in0.0 mm 0.49 in12.4 mm
11:30 PM 59.0°F15.0°C 57.0°F13.9°C 93% 4.4 mph N7.1 kmh N 9.7 mph15.6 kmh 29.92 in1013.2 mb 0.00 in0.0 mm 0.00 in0.0 mm 0.49 in12.4 mm
11:45 PM 59.0°F15.0°C 57.0°F13.9°C 93% 5.0 mph N8.0 kmh N 8.6 mph13.8 kmh 29.92 in1013.2 mb 0.00 in0.0 mm 0.00 in0.0 mm 0.49 in12.4 mm